createdAt,value
2019-03-25T00:04:21.829Z,3.80
2019-03-25T00:09:26.160Z,4.00
2019-03-25T00:14:30.501Z,4.00
2019-03-25T00:19:34.952Z,4.00
2019-03-25T00:24:39.358Z,3.00
2019-03-25T00:29:43.680Z,3.25
2019-03-25T00:34:47.995Z,4.00
2019-03-25T00:39:52.394Z,3.25
2019-03-25T00:44:56.720Z,4.00
2019-03-25T00:50:01.046Z,3.00
2019-03-25T00:55:05.488Z,3.00
2019-03-25T01:00:10.004Z,3.20
2019-03-25T01:05:14.432Z,3.00
2019-03-25T01:10:18.802Z,3.00
2019-03-25T01:15:23.113Z,3.00
2019-03-25T01:20:27.592Z,3.00
2019-03-25T01:25:31.900Z,3.00
2019-03-25T01:30:36.245Z,3.25
2019-03-25T01:35:40.583Z,3.00
2019-03-25T01:40:44.940Z,2.00
2019-03-25T01:45:49.238Z,2.00
2019-03-25T01:50:53.537Z,3.00
2019-03-25T01:55:57.922Z,2.25
2019-03-25T02:01:02.287Z,3.00
2019-03-25T02:06:06.583Z,2.00
2019-03-25T02:11:10.877Z,2.25
2019-03-25T02:16:15.373Z,2.75
2019-03-25T02:21:19.769Z,3.00
2019-03-25T02:26:24.183Z,3.00
2019-03-25T02:31:28.468Z,2.75
2019-03-25T02:36:32.800Z,3.00
2019-03-25T02:41:37.119Z,3.00
2019-03-25T02:46:41.477Z,2.20
2019-03-25T02:51:45.816Z,2.00
2019-03-25T02:56:50.141Z,2.00
2019-03-25T03:01:54.471Z,2.75
2019-03-25T03:06:58.828Z,2.00
2019-03-25T03:12:03.150Z,2.00
2019-03-25T03:17:07.488Z,2.00
2019-03-25T03:22:11.890Z,2.00
2019-03-25T03:27:16.293Z,2.00
2019-03-25T03:32:20.625Z,2.00
2019-03-25T03:37:24.911Z,2.00
2019-03-25T03:42:29.440Z,3.00
2019-03-25T03:47:33.856Z,2.00
2019-03-25T03:52:38.254Z,2.00
2019-03-25T03:57:43.290Z,2.00
2019-03-25T04:02:47.632Z,2.00
2019-03-25T04:07:52.087Z,2.00
2019-03-25T04:12:56.511Z,1.50
2019-03-25T04:18:00.966Z,2.00
2019-03-25T04:23:05.279Z,2.00
2019-03-25T04:28:09.574Z,1.40
2019-03-25T04:33:13.865Z,2.00
2019-03-25T04:38:18.168Z,1.00
2019-03-25T04:43:22.549Z,2.00
2019-03-25T04:48:26.980Z,1.75
2019-03-25T04:53:31.303Z,2.00
2019-03-25T04:58:35.701Z,2.00
2019-03-25T05:03:40.072Z,1.50
2019-03-25T05:08:44.350Z,1.80
2019-03-25T05:13:48.645Z,1.00
2019-03-25T05:18:52.955Z,1.25
2019-03-25T05:23:57.261Z,1.75
2019-03-25T05:29:01.567Z,1.00
2019-03-25T05:34:05.874Z,2.00
2019-03-25T05:39:10.496Z,1.25
2019-03-25T05:44:14.817Z,2.00
2019-03-25T05:49:19.237Z,1.75
2019-03-25T05:54:23.557Z,1.00
2019-03-25T05:59:27.964Z,1.00
2019-03-25T06:04:32.357Z,1.00
2019-03-25T06:09:36.736Z,2.00
2019-03-25T06:14:41.065Z,1.00
2019-03-25T06:19:45.380Z,1.00
2019-03-25T06:24:50.124Z,1.00
2019-03-25T06:29:54.484Z,1.00
2019-03-25T06:34:58.820Z,1.00
2019-03-25T06:40:03.163Z,1.00
2019-03-25T06:45:08.942Z,1.00
2019-03-25T06:50:13.375Z,1.60
2019-03-25T06:55:17.652Z,2.00
2019-03-25T07:00:22.020Z,1.00
2019-03-25T07:05:26.409Z,1.00
2019-03-25T07:10:35.141Z,1.00
2019-03-25T07:15:39.554Z,1.00
2019-03-25T07:20:43.879Z,1.50
2019-03-25T07:25:48.199Z,2.00
2019-03-25T07:30:52.702Z,0.50
2019-03-25T07:35:57.072Z,1.00
2019-03-25T07:41:01.387Z,5.00
2019-03-25T07:46:05.688Z,8.20
2019-03-25T07:51:10.477Z,10.00
2019-03-25T07:56:14.783Z,9.75
2019-03-25T08:01:19.403Z,9.00
2019-03-25T08:06:23.751Z,6.00
2019-03-25T08:11:28.271Z,6.00
2019-03-25T08:16:32.611Z,3.00
2019-03-25T08:21:36.924Z,5.00
2019-03-25T08:26:42.851Z,3.40
2019-03-25T08:31:47.480Z,3.00
2019-03-25T08:36:51.915Z,2.00
2019-03-25T08:41:56.175Z,2.25
2019-03-25T08:47:01.062Z,2.00
2019-03-25T08:52:05.394Z,2.00
2019-03-25T08:57:09.666Z,1.00
2019-03-25T09:02:14.055Z,2.00
2019-03-25T09:07:18.363Z,2.00
2019-03-25T09:12:22.721Z,2.00
2019-03-25T09:17:27.044Z,2.00
2019-03-25T09:22:31.324Z,1.75
2019-03-25T09:27:35.636Z,1.80
2019-03-25T09:32:39.919Z,1.00
2019-03-25T09:37:44.209Z,1.00
2019-03-25T09:42:48.526Z,0.75
2019-03-25T09:47:53.051Z,0.25
2019-03-25T09:52:57.429Z,0.75
2019-03-25T09:58:01.758Z,0.20
2019-03-25T10:03:06.043Z,1.00
2019-03-25T10:08:10.463Z,1.00
2019-03-25T10:13:14.950Z,1.00
2019-03-25T10:18:19.241Z,1.00
2019-03-25T10:23:23.574Z,1.00
2019-03-25T10:28:27.953Z,0.60
2019-03-25T10:33:32.246Z,1.00
2019-03-25T10:38:36.540Z,1.00
2019-03-25T10:43:40.850Z,1.20
2019-03-25T10:48:45.267Z,1.00
2019-03-25T10:53:49.556Z,1.25
2019-03-25T10:58:58.095Z,0.00
2019-03-25T11:03:59.949Z,1.50
2019-03-25T11:09:06.212Z,1.00
2019-03-25T11:14:10.499Z,1.00
2019-03-25T11:19:14.845Z,1.50
2019-03-25T11:24:19.127Z,0.00
2019-03-25T11:29:23.454Z,0.40
2019-03-25T11:34:27.745Z,0.40
2019-03-25T11:39:32.036Z,1.00
2019-03-25T11:44:36.346Z,0.75
2019-03-25T11:49:40.641Z,0.50
2019-03-25T11:54:45.053Z,1.00
2019-03-25T11:59:49.389Z,0.50
2019-03-25T12:04:53.711Z,0.20
2019-03-25T12:09:57.990Z,0.75
2019-03-25T12:15:02.503Z,0.00
2019-03-25T12:20:06.863Z,0.00
2019-03-25T12:25:11.245Z,0.00
2019-03-25T12:30:15.536Z,1.00
2019-03-25T12:35:19.833Z,1.20
2019-03-25T12:40:24.142Z,2.00
2019-03-25T12:45:28.611Z,2.40
2019-03-25T12:50:32.911Z,2.00
2019-03-25T12:55:38.095Z,3.00
2019-03-25T13:00:43.578Z,3.75
2019-03-25T13:05:48.175Z,4.00
2019-03-25T13:10:52.538Z,8.40
2019-03-25T13:15:56.885Z,7.25
2019-03-25T13:21:01.234Z,8.25
2019-03-25T13:26:05.522Z,10.00
2019-03-25T13:31:09.841Z,11.40
2019-03-25T13:36:14.159Z,12.00
2019-03-25T13:41:18.452Z,14.00
2019-03-25T13:46:22.868Z,15.00
2019-03-25T13:51:27.208Z,16.60
2019-03-25T13:56:31.545Z,19.80
2019-03-25T14:01:35.872Z,22.00
2019-03-25T14:06:40.213Z,33.00
2019-03-25T14:11:44.505Z,44.00
2019-03-25T14:16:48.876Z,41.00
2019-03-25T14:21:53.213Z,41.00
2019-03-25T14:26:57.666Z,39.50
2019-03-25T14:32:01.990Z,40.00
2019-03-25T14:37:06.299Z,39.60
2019-03-25T14:42:10.689Z,38.75
2019-03-25T14:47:15.011Z,38.00
2019-03-25T14:52:19.498Z,37.50
2019-03-25T14:57:26.363Z,37.75
2019-03-25T15:02:30.775Z,34.75
2019-03-25T15:07:35.094Z,34.50
2019-03-25T15:12:39.453Z,32.00
2019-03-25T15:17:43.834Z,32.00
2019-03-25T15:22:48.119Z,33.00
2019-03-25T15:27:52.445Z,32.50
2019-03-25T15:32:56.738Z,32.40
2019-03-25T15:38:01.060Z,32.00
2019-03-25T15:43:05.392Z,30.50
2019-03-25T15:48:09.770Z,29.75
2019-03-25T15:53:14.268Z,29.20
2019-03-25T15:58:26.109Z,30.00
2019-03-25T16:03:24.686Z,29.00
2019-03-25T16:08:29.012Z,28.25
2019-03-25T16:13:33.354Z,25.75
2019-03-25T16:18:41.684Z,27.00
2019-03-25T16:23:46.095Z,28.25
2019-03-25T16:28:50.433Z,26.50
2019-03-25T16:33:54.859Z,27.00
2019-03-25T16:38:59.314Z,26.00
2019-03-25T16:44:03.739Z,26.75
2019-03-25T16:49:08.217Z,25.75
2019-03-25T16:54:12.619Z,26.00
2019-03-25T16:59:17.021Z,26.00
2019-03-25T17:04:21.840Z,23.00
2019-03-25T17:09:26.340Z,24.20
2019-03-25T17:14:30.674Z,25.75
2019-03-25T17:19:33.792Z,23.00
2019-03-25T17:24:38.174Z,23.00
2019-03-25T17:29:42.501Z,22.50
2019-03-25T17:34:46.796Z,22.00
2019-03-25T17:39:51.100Z,23.00
2019-03-25T17:44:55.480Z,23.00
2019-03-25T17:49:59.803Z,22.25
2019-03-25T17:55:04.566Z,22.75
2019-03-25T18:00:10.181Z,22.40
2019-03-25T18:05:14.502Z,21.50
2019-03-25T18:10:18.833Z,21.00
2019-03-25T18:15:23.296Z,22.50
2019-03-25T18:20:27.721Z,20.40
2019-03-25T18:25:32.273Z,22.50
2019-03-25T18:30:36.992Z,20.80
2019-03-25T18:35:41.293Z,20.80
2019-03-25T18:40:45.603Z,20.60
2019-03-25T18:45:49.911Z,19.00
2019-03-25T18:50:54.226Z,18.00
2019-03-25T18:55:58.590Z,19.00
2019-03-25T19:01:03.013Z,18.50
2019-03-25T19:06:07.382Z,18.00
2019-03-25T19:11:11.795Z,16.60
2019-03-25T19:16:16.148Z,17.00
2019-03-25T19:21:20.483Z,17.75
2019-03-25T19:26:24.912Z,17.00
2019-03-25T19:31:29.523Z,16.25
2019-03-25T19:36:33.879Z,17.00
2019-03-25T19:41:38.287Z,16.00
2019-03-25T19:46:42.630Z,16.75
2019-03-25T19:51:47.001Z,15.00
2019-03-25T19:56:51.698Z,16.00
2019-03-25T20:01:56.158Z,15.00
2019-03-25T20:07:00.525Z,16.00
2019-03-25T20:12:04.962Z,15.00
2019-03-25T20:17:09.311Z,15.00
2019-03-25T20:22:13.664Z,14.25
2019-03-25T20:27:18.072Z,14.80
2019-03-25T20:33:34.501Z,13.40
2019-03-25T20:38:38.812Z,14.00
2019-03-25T20:43:43.139Z,13.00
2019-03-25T20:48:47.555Z,14.50
2019-03-25T20:53:51.895Z,11.80
2019-03-25T20:58:56.191Z,13.50
2019-03-25T21:04:00.615Z,13.50
2019-03-25T21:09:06.337Z,13.75
2019-03-25T21:14:10.686Z,11.20
2019-03-25T21:19:15.135Z,12.50
2019-03-25T21:24:19.590Z,13.50
2019-03-25T21:29:24.108Z,12.00
2019-03-25T21:34:28.465Z,10.50
2019-03-25T21:39:32.802Z,10.25
2019-03-25T21:44:37.314Z,10.25
2019-03-25T21:49:41.710Z,10.00
2019-03-25T21:54:46.095Z,10.25
2019-03-25T21:59:51.550Z,9.75
2019-03-25T22:04:57.179Z,11.00
2019-03-25T22:10:01.869Z,9.50
2019-03-25T22:15:09.206Z,9.20
2019-03-25T22:20:13.597Z,10.00
2019-03-25T22:25:17.946Z,10.00
2019-03-25T22:30:22.263Z,8.00
2019-03-25T22:35:26.600Z,9.00
2019-03-25T22:40:30.905Z,9.00
2019-03-25T22:45:35.183Z,8.25
2019-03-25T22:50:39.512Z,9.20
2019-03-25T22:55:43.795Z,8.00
2019-03-25T23:00:48.904Z,9.00
2019-03-25T23:05:53.241Z,7.50
2019-03-25T23:10:57.569Z,7.00
2019-03-25T23:16:01.873Z,8.00
2019-03-25T23:21:06.158Z,8.00
2019-03-25T23:26:10.474Z,8.50
2019-03-25T23:31:14.901Z,7.75
2019-03-25T23:36:19.236Z,8.00
2019-03-25T23:41:23.559Z,7.40
2019-03-25T23:46:27.837Z,7.00
2019-03-25T23:51:32.158Z,7.75
2019-03-25T23:56:36.434Z,9.00
